sensor_id;sensor_type;location;lat;lon;timestamp;pressure;altitude;pressure_sealevel;temperature;humidity
1371;BME280;14306;49.942;11.570;2022-08-03T00:02:15;97672.97;;;18.51;73.35
1371;BME280;14306;49.942;11.570;2022-08-03T00:04:43;97665.44;;;18.48;73.01
1371;BME280;14306;49.942;11.570;2022-08-03T00:07:11;97670.94;;;18.48;72.80
1371;BME280;14306;49.942;11.570;2022-08-03T00:09:41;97672.91;;;18.35;72.88
1371;BME280;14306;49.942;11.570;2022-08-03T00:12:09;97663.66;;;18.40;72.52
1371;BME280;14306;49.942;11.570;2022-08-03T00:14:37;97669.56;;;18.42;72.25
1371;BME280;14306;49.942;11.570;2022-08-03T00:17:05;97673.03;;;18.39;72.28
1371;BME280;14306;49.942;11.570;2022-08-03T00:19:33;97677.47;;;18.31;72.63
1371;BME280;14306;49.942;11.570;2022-08-03T00:22:01;97684.22;;;18.22;72.81
1371;BME280;14306;49.942;11.570;2022-08-03T00:24:29;97680.56;;;18.18;72.84
1371;BME280;14306;49.942;11.570;2022-08-03T00:26:58;97684.34;;;18.13;72.53
1371;BME280;14306;49.942;11.570;2022-08-03T00:29:26;97681.06;;;18.08;73.36
1371;BME280;14306;49.942;11.570;2022-08-03T00:31:54;97683.81;;;17.84;73.43
1371;BME280;14306;49.942;11.570;2022-08-03T00:34:26;97684.50;;;17.81;73.61
1371;BME280;14306;49.942;11.570;2022-08-03T00:37:12;97682.34;;;17.74;73.71
1371;BME280;14306;49.942;11.570;2022-08-03T00:39:42;97683.03;;;17.71;73.99
1371;BME280;14306;49.942;11.570;2022-08-03T00:42:13;97680.41;;;17.75;74.67
1371;BME280;14306;49.942;11.570;2022-08-03T00:44:42;97681.75;;;17.81;74.47
1371;BME280;14306;49.942;11.570;2022-08-03T00:47:11;97686.81;;;17.67;75.23
1371;BME280;14306;49.942;11.570;2022-08-03T00:49:40;97692.28;;;17.55;75.79
1371;BME280;14306;49.942;11.570;2022-08-03T00:52:09;97680.41;;;17.63;75.95
1371;BME280;14306;49.942;11.570;2022-08-03T00:54:38;97694.44;;;17.61;75.43
1371;BME280;14306;49.942;11.570;2022-08-03T00:57:06;97693.19;;;17.59;75.46
1371;BME280;14306;49.942;11.570;2022-08-03T00:59:35;97693.31;;;17.62;75.27
1371;BME280;14306;49.942;11.570;2022-08-03T01:02:05;97691.72;;;17.61;75.23
1371;BME280;14306;49.942;11.570;2022-08-03T01:04:32;97691.38;;;17.51;75.84
1371;BME280;14306;49.942;11.570;2022-08-03T01:07:05;97691.72;;;17.49;76.45
1371;BME280;14306;49.942;11.570;2022-08-03T01:09:42;97685.75;;;17.47;76.34
1371;BME280;14306;49.942;11.570;2022-08-03T01:12:17;97688.84;;;17.46;76.07
1371;BME280;14306;49.942;11.570;2022-08-03T01:14:54;97679.00;;;17.33;76.73
1371;BME280;14306;49.942;11.570;2022-08-03T01:17:33;97679.09;;;17.36;76.93
1371;BME280;14306;49.942;11.570;2022-08-03T01:20:06;97684.13;;;17.34;76.22
1371;BME280;14306;49.942;11.570;2022-08-03T01:22:56;97688.03;;;17.33;76.98
1371;BME280;14306;49.942;11.570;2022-08-03T01:25:42;97685.38;;;17.25;77.18
1371;BME280;14306;49.942;11.570;2022-08-03T01:28:32;97684.78;;;17.19;77.55
1371;BME280;14306;49.942;11.570;2022-08-03T01:31:07;97674.50;;;17.16;78.25
1371;BME280;14306;49.942;11.570;2022-08-03T01:33:40;97675.56;;;17.24;78.61
1371;BME280;14306;49.942;11.570;2022-08-03T01:36:12;97671.53;;;17.21;78.87
1371;BME280;14306;49.942;11.570;2022-08-03T01:38:45;97671.44;;;17.18;79.25
1371;BME280;14306;49.942;11.570;2022-08-03T01:41:19;97667.13;;;17.17;79.36
1371;BME280;14306;49.942;11.570;2022-08-03T01:43:49;97670.59;;;17.05;78.98
1371;BME280;14306;49.942;11.570;2022-08-03T01:46:39;97660.13;;;17.07;79.00
1371;BME280;14306;49.942;11.570;2022-08-03T01:49:15;97669.03;;;17.04;78.26
1371;BME280;14306;49.942;11.570;2022-08-03T01:51:47;97658.97;;;16.96;78.54
1371;BME280;14306;49.942;11.570;2022-08-03T01:54:31;97668.06;;;16.88;78.80
1371;BME280;14306;49.942;11.570;2022-08-03T01:57:00;97665.78;;;16.90;78.63
1371;BME280;14306;49.942;11.570;2022-08-03T01:59:32;97660.75;;;16.80;79.31
1371;BME280;14306;49.942;11.570;2022-08-03T02:02:03;97669.41;;;16.82;79.16
1371;BME280;14306;49.942;11.570;2022-08-03T02:04:53;97671.69;;;16.80;79.44
1371;BME280;14306;49.942;11.570;2022-08-03T02:07:22;97672.22;;;16.74;79.75
1371;BME280;14306;49.942;11.570;2022-08-03T02:09:53;97680.25;;;16.79;79.38
1371;BME280;14306;49.942;11.570;2022-08-03T02:12:23;97664.81;;;16.74;79.34
1371;BME280;14306;49.942;11.570;2022-08-03T02:14:52;97668.72;;;16.73;79.39
1371;BME280;14306;49.942;11.570;2022-08-03T02:17:24;97664.72;;;16.71;79.48
1371;BME280;14306;49.942;11.570;2022-08-03T02:20:06;97673.25;;;16.69;79.56
1371;BME280;14306;49.942;11.570;2022-08-03T02:22:35;97665.72;;;16.66;79.76
1371;BME280;14306;49.942;11.570;2022-08-03T02:25:07;97662.31;;;16.69;80.13
1371;BME280;14306;49.942;11.570;2022-08-03T02:27:38;97657.97;;;16.68;79.93
1371;BME280;14306;49.942;11.570;2022-08-03T02:30:10;97665.66;;;16.54;80.28
1371;BME280;14306;49.942;11.570;2022-08-03T02:32:43;97666.88;;;16.45;80.42
1371;BME280;14306;49.942;11.570;2022-08-03T02:35:16;97663.25;;;16.53;80.38
1371;BME280;14306;49.942;11.570;2022-08-03T02:37:50;97656.78;;;16.37;80.53
1371;BME280;14306;49.942;11.570;2022-08-03T02:40:20;97663.84;;;16.38;80.30
1371;BME280;14306;49.942;11.570;2022-08-03T02:42:52;97661.66;;;16.31;80.30
1371;BME280;14306;49.942;11.570;2022-08-03T02:45:23;97660.06;;;16.30;80.39
1371;BME280;14306;49.942;11.570;2022-08-03T02:47:57;97658.13;;;16.31;80.59
1371;BME280;14306;49.942;11.570;2022-08-03T02:50:28;97655.53;;;16.34;80.47
1371;BME280;14306;49.942;11.570;2022-08-03T02:52:57;97661.88;;;16.47;80.67
1371;BME280;14306;49.942;11.570;2022-08-03T02:55:27;97663.94;;;16.50;80.54
1371;BME280;14306;49.942;11.570;2022-08-03T02:57:56;97665.06;;;16.49;80.57
1371;BME280;14306;49.942;11.570;2022-08-03T03:00:27;97657.09;;;16.44;80.05
1371;BME280;14306;49.942;11.570;2022-08-03T03:06:44;97664.84;;;16.33;80.36
1371;BME280;14306;49.942;11.570;2022-08-03T03:12:43;97662.00;;;16.30;79.87
1371;BME280;14306;49.942;11.570;2022-08-03T03:15:13;97668.94;;;16.27;80.30
1371;BME280;14306;49.942;11.570;2022-08-03T03:17:42;97669.91;;;16.23;80.56
1371;BME280;14306;49.942;11.570;2022-08-03T03:20:11;97675.13;;;16.16;80.73
1371;BME280;14306;49.942;11.570;2022-08-03T03:22:40;97672.91;;;16.09;80.84
1371;BME280;14306;49.942;11.570;2022-08-03T03:25:10;97672.91;;;16.09;80.53
1371;BME280;14306;49.942;11.570;2022-08-03T03:27:38;97673.56;;;16.06;80.71
1371;BME280;14306;49.942;11.570;2022-08-03T03:30:15;97676.31;;;16.06;80.84
1371;BME280;14306;49.942;11.570;2022-08-03T03:32:43;97669.59;;;16.04;80.84
1371;BME280;14306;49.942;11.570;2022-08-03T03:35:12;97678.72;;;16.08;80.65
1371;BME280;14306;49.942;11.570;2022-08-03T03:37:42;97684.50;;;16.06;80.69
1371;BME280;14306;49.942;11.570;2022-08-03T03:40:11;97681.66;;;16.03;80.69
1371;BME280;14306;49.942;11.570;2022-08-03T03:42:39;97674.59;;;16.02;80.68
1371;BME280;14306;49.942;11.570;2022-08-03T03:45:08;97672.53;;;15.99;80.80
1371;BME280;14306;49.942;11.570;2022-08-03T03:47:36;97676.38;;;15.98;80.90
1371;BME280;14306;49.942;11.570;2022-08-03T03:50:06;97675.66;;;16.09;80.41
1371;BME280;14306;49.942;11.570;2022-08-03T03:52:34;97681.38;;;15.96;80.71
1371;BME280;14306;49.942;11.570;2022-08-03T03:55:05;97676.47;;;16.10;80.24
1371;BME280;14306;49.942;11.570;2022-08-03T03:57:33;97678.06;;;16.11;80.42
1371;BME280;14306;49.942;11.570;2022-08-03T04:00:03;97678.44;;;16.21;80.00
1371;BME280;14306;49.942;11.570;2022-08-03T04:02:31;97678.94;;;16.23;79.57
1371;BME280;14306;49.942;11.570;2022-08-03T04:04:59;97672.69;;;16.43;79.67
1371;BME280;14306;49.942;11.570;2022-08-03T04:07:51;97670.53;;;17.14;78.64
1371;BME280;14306;49.942;11.570;2022-08-03T04:10:42;97666.91;;;18.06;76.20
1371;BME280;14306;49.942;11.570;2022-08-03T04:13:31;97660.03;;;18.79;73.60
1371;BME280;14306;49.942;11.570;2022-08-03T04:16:00;97655.16;;;19.78;70.55
1371;BME280;14306;49.942;11.570;2022-08-03T04:18:30;97654.38;;;20.65;67.31
1371;BME280;14306;49.942;11.570;2022-08-03T04:21:01;97652.09;;;21.54;64.16
1371;BME280;14306;49.942;11.570;2022-08-03T04:23:32;97662.00;;;22.03;62.58
1371;BME280;14306;49.942;11.570;2022-08-03T04:26:05;97666.72;;;22.92;58.45
1371;BME280;14306;49.942;11.570;2022-08-03T04:28:36;97661.97;;;23.65;56.11
1371;BME280;14306;49.942;11.570;2022-08-03T04:31:06;97656.75;;;24.00;55.89
1371;BME280;14306;49.942;11.570;2022-08-03T04:33:36;97673.00;;;24.77;52.61
1371;BME280;14306;49.942;11.570;2022-08-03T04:36:08;97662.53;;;25.66;49.00
1371;BME280;14306;49.942;11.570;2022-08-03T04:38:39;97665.75;;;26.18;47.18
1371;BME280;14306;49.942;11.570;2022-08-03T04:41:12;97669.81;;;27.10;44.99
1371;BME280;14306;49.942;11.570;2022-08-03T04:43:41;97666.63;;;27.76;42.75
1371;BME280;14306;49.942;11.570;2022-08-03T04:46:09;97669.66;;;28.36;41.91
1371;BME280;14306;49.942;11.570;2022-08-03T04:48:38;97681.44;;;28.14;40.90
1371;BME280;14306;49.942;11.570;2022-08-03T04:51:10;97663.50;;;29.23;39.22
1371;BME280;14306;49.942;11.570;2022-08-03T04:53:38;97673.50;;;29.20;38.62
1371;BME280;14306;49.942;11.570;2022-08-03T04:56:07;97673.94;;;29.18;39.04
1371;BME280;14306;49.942;11.570;2022-08-03T04:58:36;97678.69;;;30.47;37.29
1371;BME280;14306;49.942;11.570;2022-08-03T05:01:04;97673.56;;;31.04;35.98
1371;BME280;14306;49.942;11.570;2022-08-03T05:03:32;97681.25;;;30.38;35.70
1371;BME280;14306;49.942;11.570;2022-08-03T05:06:01;97678.78;;;31.41;33.70
1371;BME280;14306;49.942;11.570;2022-08-03T05:08:36;97676.31;;;32.11;33.08
1371;BME280;14306;49.942;11.570;2022-08-03T05:11:12;97674.91;;;32.19;33.10
1371;BME280;14306;49.942;11.570;2022-08-03T05:13:41;97679.19;;;32.39;32.15
1371;BME280;14306;49.942;11.570;2022-08-03T05:16:10;97684.47;;;32.05;32.85
1371;BME280;14306;49.942;11.570;2022-08-03T05:18:39;97679.81;;;32.92;31.58
1371;BME280;14306;49.942;11.570;2022-08-03T05:21:08;97683.75;;;33.60;30.48
1371;BME280;14306;49.942;11.570;2022-08-03T05:23:36;97685.59;;;33.92;30.37
1371;BME280;14306;49.942;11.570;2022-08-03T05:26:04;97679.72;;;34.92;28.39
1371;BME280;14306;49.942;11.570;2022-08-03T05:28:32;97690.03;;;34.86;28.86
1371;BME280;14306;49.942;11.570;2022-08-03T05:31:01;97688.63;;;35.55;28.18
1371;BME280;14306;49.942;11.570;2022-08-03T05:33:29;97688.53;;;34.60;28.41
1371;BME280;14306;49.942;11.570;2022-08-03T05:35:56;97691.06;;;34.33;28.77
1371;BME280;14306;49.942;11.570;2022-08-03T05:38:29;97693.00;;;35.56;28.03
1371;BME280;14306;49.942;11.570;2022-08-03T05:41:00;97689.78;;;35.76;26.91
1371;BME280;14306;49.942;11.570;2022-08-03T05:43:48;97693.88;;;36.81;25.40
1371;BME280;14306;49.942;11.570;2022-08-03T05:46:22;97695.56;;;36.51;25.95
1371;BME280;14306;49.942;11.570;2022-08-03T05:48:50;97696.69;;;37.17;25.20
1371;BME280;14306;49.942;11.570;2022-08-03T05:51:18;97690.88;;;37.29;24.95
1371;BME280;14306;49.942;11.570;2022-08-03T05:53:46;97693.50;;;37.60;24.49
1371;BME280;14306;49.942;11.570;2022-08-03T05:56:20;97690.81;;;38.07;24.10
1371;BME280;14306;49.942;11.570;2022-08-03T05:58:49;97690.69;;;37.92;24.53
1371;BME280;14306;49.942;11.570;2022-08-03T06:01:19;97700.13;;;37.39;24.78
1371;BME280;14306;49.942;11.570;2022-08-03T06:03:50;97689.69;;;39.37;22.40
1371;BME280;14306;49.942;11.570;2022-08-03T06:06:18;97694.63;;;38.98;23.01
1371;BME280;14306;49.942;11.570;2022-08-03T06:08:46;97697.94;;;39.35;22.84
1371;BME280;14306;49.942;11.570;2022-08-03T06:11:17;97688.72;;;39.54;22.51
1371;BME280;14306;49.942;11.570;2022-08-03T06:13:45;97686.53;;;39.93;22.43
1371;BME280;14306;49.942;11.570;2022-08-03T06:16:13;97686.28;;;39.62;22.41
1371;BME280;14306;49.942;11.570;2022-08-03T06:18:42;97691.06;;;40.34;21.83
1371;BME280;14306;49.942;11.570;2022-08-03T06:21:11;97697.03;;;41.16;21.41
1371;BME280;14306;49.942;11.570;2022-08-03T06:23:44;97691.91;;;40.05;22.41
1371;BME280;14306;49.942;11.570;2022-08-03T06:26:19;97683.94;;;40.24;22.06
1371;BME280;14306;49.942;11.570;2022-08-03T06:28:46;97685.47;;;39.61;23.20
1371;BME280;14306;49.942;11.570;2022-08-03T06:31:19;97685.38;;;39.56;22.71
1371;BME280;14306;49.942;11.570;2022-08-03T06:33:48;97687.88;;;41.32;21.36
1371;BME280;14306;49.942;11.570;2022-08-03T06:36:37;97687.47;;;42.27;20.41
1371;BME280;14306;49.942;11.570;2022-08-03T06:39:06;97695.13;;;41.07;21.96
1371;BME280;14306;49.942;11.570;2022-08-03T06:41:36;97686.84;;;41.55;20.84
1371;BME280;14306;49.942;11.570;2022-08-03T06:44:10;97691.81;;;41.60;21.09
1371;BME280;14306;49.942;11.570;2022-08-03T06:46:39;97693.41;;;41.92;21.56
1371;BME280;14306;49.942;11.570;2022-08-03T06:49:07;97690.94;;;41.80;21.24
1371;BME280;14306;49.942;11.570;2022-08-03T06:51:37;97686.34;;;41.56;20.86
1371;BME280;14306;49.942;11.570;2022-08-03T06:54:26;97690.72;;;41.06;21.88
1371;BME280;14306;49.942;11.570;2022-08-03T06:56:58;97687.50;;;41.70;21.76
1371;BME280;14306;49.942;11.570;2022-08-03T06:59:26;97692.84;;;40.51;22.62
1371;BME280;14306;49.942;11.570;2022-08-03T07:02:14;97687.81;;;42.09;21.99
1371;BME280;14306;49.942;11.570;2022-08-03T07:04:45;97683.38;;;42.86;20.87
1371;BME280;14306;49.942;11.570;2022-08-03T07:07:15;97691.84;;;41.91;21.60
1371;BME280;14306;49.942;11.570;2022-08-03T07:09:45;97693.03;;;40.62;22.72
1371;BME280;14306;49.942;11.570;2022-08-03T07:12:23;97682.72;;;40.30;23.70
1371;BME280;14306;49.942;11.570;2022-08-03T07:14:51;97683.44;;;40.25;23.89
1371;BME280;14306;49.942;11.570;2022-08-03T07:17:26;97690.16;;;40.82;23.07
1371;BME280;14306;49.942;11.570;2022-08-03T07:19:55;97703.47;;;41.88;21.59
1371;BME280;14306;49.942;11.570;2022-08-03T07:22:25;97688.63;;;41.27;22.74
1371;BME280;14306;49.942;11.570;2022-08-03T07:24:53;97685.63;;;43.52;20.86
1371;BME280;14306;49.942;11.570;2022-08-03T07:27:22;97692.56;;;43.23;20.74
1371;BME280;14306;49.942;11.570;2022-08-03T07:29:52;97681.69;;;43.38;20.66
1371;BME280;14306;49.942;11.570;2022-08-03T07:32:22;97687.13;;;43.20;20.46
1371;BME280;14306;49.942;11.570;2022-08-03T07:34:52;97683.81;;;44.31;19.31
1371;BME280;14306;49.942;11.570;2022-08-03T07:37:27;97684.69;;;41.44;23.23
1371;BME280;14306;49.942;11.570;2022-08-03T07:39:55;97687.19;;;43.69;20.45
1371;BME280;14306;49.942;11.570;2022-08-03T07:42:23;97683.03;;;43.92;20.45
1371;BME280;14306;49.942;11.570;2022-08-03T07:44:51;97689.78;;;45.13;18.73
1371;BME280;14306;49.942;11.570;2022-08-03T07:47:20;97690.31;;;44.10;19.74
1371;BME280;14306;49.942;11.570;2022-08-03T07:50:03;97690.03;;;43.64;20.18
1371;BME280;14306;49.942;11.570;2022-08-03T07:52:32;97688.34;;;41.76;21.48
1371;BME280;14306;49.942;11.570;2022-08-03T07:55:17;97690.66;;;42.98;20.28
1371;BME280;14306;49.942;11.570;2022-08-03T07:57:46;97689.72;;;43.29;20.16
1371;BME280;14306;49.942;11.570;2022-08-03T08:00:15;97680.66;;;42.66;21.38
1371;BME280;14306;49.942;11.570;2022-08-03T08:02:44;97680.56;;;43.03;20.62
1371;BME280;14306;49.942;11.570;2022-08-03T08:05:12;97674.22;;;42.71;21.37
1371;BME280;14306;49.942;11.570;2022-08-03T08:07:41;97678.03;;;43.16;20.38
1371;BME280;14306;49.942;11.570;2022-08-03T08:10:17;97677.59;;;44.00;19.40
1371;BME280;14306;49.942;11.570;2022-08-03T08:12:45;97674.53;;;42.84;20.37
1371;BME280;14306;49.942;11.570;2022-08-03T08:15:13;97669.25;;;43.41;20.11
1371;BME280;14306;49.942;11.570;2022-08-03T08:17:46;97665.91;;;43.87;20.03
1371;BME280;14306;49.942;11.570;2022-08-03T08:20:16;97673.34;;;42.60;20.42
1371;BME280;14306;49.942;11.570;2022-08-03T08:22:56;97675.41;;;43.18;20.42
1371;BME280;14306;49.942;11.570;2022-08-03T08:25:28;97674.22;;;42.24;21.09
1371;BME280;14306;49.942;11.570;2022-08-03T08:27:57;97660.97;;;43.43;19.67
1371;BME280;14306;49.942;11.570;2022-08-03T08:30:47;97665.88;;;44.09;19.03
1371;BME280;14306;49.942;11.570;2022-08-03T08:33:15;97662.22;;;45.04;18.23
1371;BME280;14306;49.942;11.570;2022-08-03T08:35:49;97662.00;;;43.46;19.54
1371;BME280;14306;49.942;11.570;2022-08-03T08:38:18;97663.81;;;43.76;19.57
1371;BME280;14306;49.942;11.570;2022-08-03T08:40:46;97656.59;;;45.34;17.74
1371;BME280;14306;49.942;11.570;2022-08-03T08:43:15;97662.38;;;46.46;17.60
1371;BME280;14306;49.942;11.570;2022-08-03T08:45:43;97656.13;;;42.96;20.16
1371;BME280;14306;49.942;11.570;2022-08-03T08:48:12;97651.47;;;41.93;21.54
1371;BME280;14306;49.942;11.570;2022-08-03T08:50:41;97644.06;;;42.54;20.62
1371;BME280;14306;49.942;11.570;2022-08-03T08:53:11;97650.25;;;45.46;17.51
1371;BME280;14306;49.942;11.570;2022-08-03T08:55:46;97647.34;;;47.01;16.21
1371;BME280;14306;49.942;11.570;2022-08-03T08:58:28;97640.31;;;45.12;17.93
1371;BME280;14306;49.942;11.570;2022-08-03T09:00:56;97647.66;;;46.79;15.75
1371;BME280;14306;49.942;11.570;2022-08-03T09:03:24;97649.03;;;45.71;16.47
1371;BME280;14306;49.942;11.570;2022-08-03T09:05:58;97652.31;;;47.01;15.68
1371;BME280;14306;49.942;11.570;2022-08-03T09:08:28;97648.69;;;45.45;16.75
1371;BME280;14306;49.942;11.570;2022-08-03T09:10:58;97641.41;;;46.09;16.37
1371;BME280;14306;49.942;11.570;2022-08-03T09:13:26;97645.91;;;43.59;17.18
1371;BME280;14306;49.942;11.570;2022-08-03T09:16:14;97640.03;;;45.16;16.41
1371;BME280;14306;49.942;11.570;2022-08-03T09:18:43;97640.72;;;45.27;15.06
1371;BME280;14306;49.942;11.570;2022-08-03T09:21:17;97640.81;;;44.53;16.31
1371;BME280;14306;49.942;11.570;2022-08-03T09:24:03;97632.75;;;44.63;16.01
1371;BME280;14306;49.942;11.570;2022-08-03T09:26:49;97639.03;;;44.50;16.32
1371;BME280;14306;49.942;11.570;2022-08-03T09:29:19;97624.84;;;43.40;17.21
1371;BME280;14306;49.942;11.570;2022-08-03T09:31:47;97624.84;;;45.32;15.38
1371;BME280;14306;49.942;11.570;2022-08-03T09:34:16;97622.78;;;43.68;16.94
1371;BME280;14306;49.942;11.570;2022-08-03T09:36:46;97625.97;;;42.68;17.92
1371;BME280;14306;49.942;11.570;2022-08-03T09:39:17;97639.00;;;41.90;19.20
1371;BME280;14306;49.942;11.570;2022-08-03T09:42:08;97628.50;;;43.57;17.54
1371;BME280;14306;49.942;11.570;2022-08-03T09:44:37;97617.53;;;46.86;15.54
1371;BME280;14306;49.942;11.570;2022-08-03T09:47:10;97616.91;;;47.30;14.54
1371;BME280;14306;49.942;11.570;2022-08-03T09:49:39;97624.50;;;47.27;14.43
1371;BME280;14306;49.942;11.570;2022-08-03T09:52:16;97624.44;;;47.33;14.39
1371;BME280;14306;49.942;11.570;2022-08-03T09:55:08;97627.13;;;47.76;14.20
1371;BME280;14306;49.942;11.570;2022-08-03T09:58:04;97626.16;;;47.23;14.74
1371;BME280;14306;49.942;11.570;2022-08-03T10:00:51;97627.22;;;46.16;15.29
1371;BME280;14306;49.942;11.570;2022-08-03T10:03:21;97619.53;;;45.47;15.92
1371;BME280;14306;49.942;11.570;2022-08-03T10:05:49;97617.13;;;45.16;16.04
1371;BME280;14306;49.942;11.570;2022-08-03T10:08:23;97617.63;;;46.14;15.62
1371;BME280;14306;49.942;11.570;2022-08-03T10:10:51;97607.63;;;46.20;15.19
1371;BME280;14306;49.942;11.570;2022-08-03T10:13:22;97610.66;;;45.45;16.17
1371;BME280;14306;49.942;11.570;2022-08-03T10:15:50;97602.47;;;44.05;17.55
1371;BME280;14306;49.942;11.570;2022-08-03T10:18:37;97596.22;;;44.28;16.73
1371;BME280;14306;49.942;11.570;2022-08-03T10:21:07;97601.47;;;46.35;14.82
1371;BME280;14306;49.942;11.570;2022-08-03T10:23:37;97594.66;;;44.27;17.01
1371;BME280;14306;49.942;11.570;2022-08-03T10:26:12;97593.34;;;45.32;16.00
1371;BME280;14306;49.942;11.570;2022-08-03T10:28:48;97595.13;;;45.94;14.17
1371;BME280;14306;49.942;11.570;2022-08-03T10:31:17;97595.16;;;46.18;14.20
1371;BME280;14306;49.942;11.570;2022-08-03T10:33:51;97607.34;;;45.70;14.70
1371;BME280;14306;49.942;11.570;2022-08-03T10:36:23;97601.97;;;44.80;14.94
1371;BME280;14306;49.942;11.570;2022-08-03T10:38:56;97595.81;;;48.30;13.10
1371;BME280;14306;49.942;11.570;2022-08-03T10:41:25;97597.44;;;47.86;13.47
1371;BME280;14306;49.942;11.570;2022-08-03T10:44:03;97591.72;;;47.55;13.45
1371;BME280;14306;49.942;11.570;2022-08-03T10:46:32;97587.81;;;44.47;15.10
1371;BME280;14306;49.942;11.570;2022-08-03T10:49:11;97577.28;;;44.03;15.49
1371;BME280;14306;49.942;11.570;2022-08-03T10:51:40;97574.00;;;46.21;14.66
1371;BME280;14306;49.942;11.570;2022-08-03T10:54:39;97571.16;;;44.57;15.67
1371;BME280;14306;49.942;11.570;2022-08-03T10:57:46;97582.72;;;45.56;14.77
1371;BME280;14306;49.942;11.570;2022-08-03T11:00:17;97577.97;;;47.16;13.12
1371;BME280;14306;49.942;11.570;2022-08-03T11:03:08;97577.22;;;48.31;12.22
1371;BME280;14306;49.942;11.570;2022-08-03T11:05:39;97575.78;;;47.22;13.23
1371;BME280;14306;49.942;11.570;2022-08-03T11:08:24;97576.53;;;47.22;12.73
1371;BME280;14306;49.942;11.570;2022-08-03T11:10:55;97569.47;;;47.23;12.70
1371;BME280;14306;49.942;11.570;2022-08-03T11:13:25;97575.75;;;45.76;13.99
1371;BME280;14306;49.942;11.570;2022-08-03T11:15:57;97575.16;;;44.26;14.99
1371;BME280;14306;49.942;11.570;2022-08-03T11:18:30;97573.19;;;43.82;15.18
1371;BME280;14306;49.942;11.570;2022-08-03T11:20:59;97563.59;;;43.85;15.37
1371;BME280;14306;49.942;11.570;2022-08-03T11:23:43;97566.69;;;43.82;14.96
1371;BME280;14306;49.942;11.570;2022-08-03T11:26:32;97560.06;;;44.31;14.99
1371;BME280;14306;49.942;11.570;2022-08-03T11:29:25;97560.88;;;44.78;14.49
1371;BME280;14306;49.942;11.570;2022-08-03T11:31:55;97548.50;;;43.74;15.07
1371;BME280;14306;49.942;11.570;2022-08-03T11:34:23;97561.47;;;43.91;15.83
1371;BME280;14306;49.942;11.570;2022-08-03T11:37:20;97550.47;;;44.17;14.98
1371;BME280;14306;49.942;11.570;2022-08-03T11:39:52;97555.00;;;43.30;15.99
1371;BME280;14306;49.942;11.570;2022-08-03T11:42:42;97551.06;;;42.78;15.92
1371;BME280;14306;49.942;11.570;2022-08-03T11:45:11;97548.91;;;42.46;16.03
1371;BME280;14306;49.942;11.570;2022-08-03T11:47:40;97544.22;;;41.90;16.63
1371;BME280;14306;49.942;11.570;2022-08-03T11:50:17;97543.03;;;41.03;17.45
1371;BME280;14306;49.942;11.570;2022-08-03T11:52:47;97545.91;;;41.39;17.24
1371;BME280;14306;49.942;11.570;2022-08-03T11:55:17;97547.47;;;40.58;17.67
1371;BME280;14306;49.942;11.570;2022-08-03T11:57:47;97534.63;;;40.43;17.76
1371;BME280;14306;49.942;11.570;2022-08-03T12:00:35;97532.13;;;40.30;17.95
1371;BME280;14306;49.942;11.570;2022-08-03T12:03:06;97540.28;;;37.99;19.90
1371;BME280;14306;49.942;11.570;2022-08-03T12:05:41;97535.97;;;39.87;18.13
1371;BME280;14306;49.942;11.570;2022-08-03T12:08:29;97530.84;;;39.91;19.01
1371;BME280;14306;49.942;11.570;2022-08-03T12:10:59;97525.22;;;39.42;18.60
1371;BME280;14306;49.942;11.570;2022-08-03T12:13:36;97519.09;;;38.86;19.46
1371;BME280;14306;49.942;11.570;2022-08-03T12:16:24;97525.00;;;37.82;20.10
1371;BME280;14306;49.942;11.570;2022-08-03T12:18:56;97521.31;;;38.14;19.51
1371;BME280;14306;49.942;11.570;2022-08-03T12:21:26;97523.34;;;37.43;20.25
1371;BME280;14306;49.942;11.570;2022-08-03T12:23:57;97523.53;;;36.89;21.17
1371;BME280;14306;49.942;11.570;2022-08-03T12:26:27;97523.59;;;37.22;20.82
1371;BME280;14306;49.942;11.570;2022-08-03T12:28:59;97529.09;;;35.45;22.83
1371;BME280;14306;49.942;11.570;2022-08-03T12:31:28;97523.53;;;34.93;23.52
1371;BME280;14306;49.942;11.570;2022-08-03T12:34:00;97516.53;;;36.13;23.30
1371;BME280;14306;49.942;11.570;2022-08-03T12:36:34;97524.84;;;35.98;22.45
1371;BME280;14306;49.942;11.570;2022-08-03T12:39:04;97515.75;;;36.21;23.09
1371;BME280;14306;49.942;11.570;2022-08-03T12:41:34;97512.78;;;36.34;22.22
1371;BME280;14306;49.942;11.570;2022-08-03T12:44:03;97516.22;;;36.38;22.17
1371;BME280;14306;49.942;11.570;2022-08-03T12:46:34;97518.75;;;36.45;22.18
1371;BME280;14306;49.942;11.570;2022-08-03T12:49:09;97519.84;;;36.29;22.00
1371;BME280;14306;49.942;11.570;2022-08-03T12:51:55;97510.56;;;36.20;22.72
1371;BME280;14306;49.942;11.570;2022-08-03T12:54:25;97514.88;;;35.18;23.08
1371;BME280;14306;49.942;11.570;2022-08-03T12:56:57;97503.63;;;34.87;23.34
1371;BME280;14306;49.942;11.570;2022-08-03T12:59:26;97501.63;;;34.66;23.84
1371;BME280;14306;49.942;11.570;2022-08-03T13:02:01;97493.34;;;35.02;23.46
1371;BME280;14306;49.942;11.570;2022-08-03T13:04:36;97499.69;;;35.15;23.99
1371;BME280;14306;49.942;11.570;2022-08-03T13:07:05;97494.91;;;35.34;23.54
1371;BME280;14306;49.942;11.570;2022-08-03T13:09:45;97501.53;;;35.49;22.56
1371;BME280;14306;49.942;11.570;2022-08-03T13:12:15;97494.97;;;35.12;23.53
1371;BME280;14306;49.942;11.570;2022-08-03T13:14:44;97497.63;;;35.16;23.79
1371;BME280;14306;49.942;11.570;2022-08-03T13:17:13;97489.34;;;35.12;23.79
1371;BME280;14306;49.942;11.570;2022-08-03T13:19:44;97488.59;;;34.81;23.79
1371;BME280;14306;49.942;11.570;2022-08-03T13:22:14;97492.75;;;34.46;24.66
1371;BME280;14306;49.942;11.570;2022-08-03T13:24:43;97489.16;;;34.76;24.76
1371;BME280;14306;49.942;11.570;2022-08-03T13:27:12;97481.28;;;34.71;24.49
1371;BME280;14306;49.942;11.570;2022-08-03T13:30:00;97494.31;;;34.99;25.45
1371;BME280;14306;49.942;11.570;2022-08-03T13:32:29;97482.94;;;34.81;24.27
1371;BME280;14306;49.942;11.570;2022-08-03T13:34:58;97484.41;;;34.95;24.26
1371;BME280;14306;49.942;11.570;2022-08-03T13:37:28;97481.81;;;35.09;25.04